createdAt,value
2022-11-08T00:00:20.611Z,12.34
2022-11-08T00:02:48.749Z,12.34
2022-11-08T00:05:34.588Z,12.35
2022-11-08T00:08:22.297Z,12.35
2022-11-08T00:11:09.133Z,12.37
2022-11-08T00:13:54.917Z,12.38
2022-11-08T00:16:23.184Z,12.37
2022-11-08T00:18:51.216Z,12.38
2022-11-08T00:21:19.208Z,12.41
2022-11-08T00:23:47.293Z,12.42
2022-11-08T00:26:16.695Z,12.43
2022-11-08T00:28:44.735Z,12.43
2022-11-08T00:31:12.744Z,12.44
2022-11-08T00:33:40.721Z,12.43
2022-11-08T00:36:09.285Z,12.44
2022-11-08T00:38:37.296Z,12.43
2022-11-08T00:41:05.410Z,12.43
2022-11-08T00:43:34.770Z,12.43
2022-11-08T00:46:02.859Z,12.43
2022-11-08T00:48:30.868Z,12.43
2022-11-08T00:51:02.354Z,12.43
2022-11-08T00:53:30.380Z,12.41
2022-11-08T00:56:02.327Z,12.40
2022-11-08T00:58:30.502Z,12.41
2022-11-08T01:01:00.450Z,12.39
2022-11-08T01:03:28.521Z,12.40
2022-11-08T01:05:56.594Z,12.38
2022-11-08T01:08:24.848Z,12.39
2022-11-08T01:10:53.227Z,12.40
2022-11-08T01:13:21.441Z,12.40
2022-11-08T01:15:49.886Z,12.40
2022-11-08T01:18:19.602Z,12.41
2022-11-08T01:20:49.737Z,12.38
2022-11-08T01:23:18.696Z,12.38
2022-11-08T01:25:48.114Z,12.37
2022-11-08T01:28:17.067Z,12.36
2022-11-08T01:30:45.926Z,12.36
2022-11-08T01:33:14.388Z,12.36
2022-11-08T01:35:45.132Z,12.37
2022-11-08T01:38:13.252Z,12.37
2022-11-08T01:40:45.632Z,12.38
2022-11-08T01:43:38.778Z,12.37
2022-11-08T01:46:51.292Z,12.37
2022-11-08T01:49:45.415Z,12.38
2022-11-08T01:52:26.416Z,12.38
2022-11-08T01:55:02.212Z,12.39
2022-11-08T01:57:36.173Z,12.40
2022-11-08T02:00:07.725Z,12.42
2022-11-08T02:02:36.640Z,12.41
2022-11-08T02:05:05.522Z,12.42
2022-11-08T02:07:35.267Z,12.43
2022-11-08T02:10:03.656Z,12.43
2022-11-08T02:12:31.675Z,12.42
2022-11-08T02:15:00.315Z,12.44
2022-11-08T02:17:28.376Z,12.43
2022-11-08T02:19:56.385Z,12.43
2022-11-08T02:22:28.535Z,12.41
2022-11-08T02:25:00.254Z,12.43
2022-11-08T02:27:28.393Z,12.41
2022-11-08T02:29:57.675Z,12.41
2022-11-08T02:32:25.730Z,12.40
2022-11-08T02:34:55.904Z,12.40
2022-11-08T02:37:24.810Z,12.39
2022-11-08T02:39:52.862Z,12.38
2022-11-08T02:42:22.260Z,12.37
2022-11-08T02:44:50.550Z,12.36
2022-11-08T02:47:18.524Z,12.34
2022-11-08T02:49:47.039Z,12.31
2022-11-08T02:52:15.047Z,12.27
2022-11-08T02:54:43.091Z,12.24
2022-11-08T02:57:11.165Z,12.20
2022-11-08T02:59:40.534Z,12.16
2022-11-08T03:02:08.757Z,12.14
2022-11-08T03:04:36.866Z,12.12
2022-11-08T03:07:04.898Z,12.11
2022-11-08T03:09:32.916Z,12.11
2022-11-08T03:12:00.890Z,12.10
2022-11-08T03:14:28.925Z,12.10
2022-11-08T03:16:58.292Z,12.10
2022-11-08T03:19:26.315Z,12.11
2022-11-08T03:21:54.314Z,12.10
2022-11-08T03:24:22.354Z,12.08
2022-11-08T03:26:50.344Z,12.08
2022-11-08T03:29:18.351Z,12.06
2022-11-08T03:31:46.382Z,12.07
2022-11-08T03:34:15.796Z,12.06
2022-11-08T03:36:43.823Z,12.07
2022-11-08T03:39:12.123Z,12.08
2022-11-08T03:41:40.156Z,12.09
2022-11-08T03:44:08.196Z,12.10
2022-11-08T03:46:36.206Z,12.11
2022-11-08T03:49:04.194Z,12.12
2022-11-08T03:51:33.575Z,12.11
2022-11-08T03:54:01.560Z,12.13
2022-11-08T03:56:29.527Z,12.13
2022-11-08T03:58:57.560Z,12.12
2022-11-08T04:01:25.688Z,12.14
2022-11-08T04:03:53.755Z,12.15
2022-11-08T04:06:21.778Z,12.15
2022-11-08T04:08:51.422Z,12.16
2022-11-08T04:11:36.887Z,12.18
2022-11-08T04:14:22.453Z,12.19
2022-11-08T04:16:50.512Z,12.21
2022-11-08T04:19:35.899Z,12.22
2022-11-08T04:22:03.993Z,12.23
2022-11-08T04:24:33.384Z,12.23
2022-11-08T04:27:02.107Z,12.25
2022-11-08T04:29:30.392Z,12.25
2022-11-08T04:31:58.368Z,12.25
2022-11-08T04:34:26.368Z,12.24
2022-11-08T04:36:56.068Z,12.22
2022-11-08T04:39:24.053Z,12.21
2022-11-08T04:41:57.718Z,12.19
2022-11-08T04:44:29.397Z,12.17
2022-11-08T04:46:57.706Z,12.13
2022-11-08T04:49:25.720Z,12.09
2022-11-08T04:51:53.736Z,12.06
2022-11-08T04:54:21.819Z,12.02
2022-11-08T04:56:49.827Z,12.00
2022-11-08T04:59:19.378Z,11.99
2022-11-08T05:01:47.536Z,11.98
2022-11-08T05:04:15.645Z,11.95
2022-11-08T05:06:43.657Z,11.94
2022-11-08T05:09:11.905Z,11.91
2022-11-08T05:11:39.922Z,11.89
2022-11-08T05:14:07.905Z,11.89
2022-11-08T05:16:37.286Z,11.85
2022-11-08T05:19:09.181Z,11.84
2022-11-08T05:21:57.667Z,11.82
2022-11-08T05:24:25.664Z,11.79
2022-11-08T05:26:53.684Z,11.77
2022-11-08T05:29:21.674Z,11.75
2022-11-08T05:31:51.005Z,11.73
2022-11-08T05:34:19.018Z,11.72
2022-11-08T05:36:47.115Z,11.71
2022-11-08T05:39:15.151Z,11.69
2022-11-08T05:41:43.127Z,11.67
2022-11-08T05:44:11.212Z,11.66
2022-11-08T05:46:39.215Z,11.64
2022-11-08T05:49:08.595Z,11.63
2022-11-08T05:51:37.055Z,11.61
2022-11-08T05:54:05.395Z,11.61
2022-11-08T05:56:33.439Z,11.59
2022-11-08T05:59:01.463Z,11.60
2022-11-08T06:01:29.531Z,11.58
2022-11-08T06:03:57.594Z,11.57
2022-11-08T06:06:26.996Z,11.57
2022-11-08T06:08:55.520Z,11.56
2022-11-08T06:11:25.393Z,11.55
2022-11-08T06:13:54.505Z,11.55
2022-11-08T06:16:24.227Z,11.55
2022-11-08T06:18:52.399Z,11.52
2022-11-08T06:21:21.504Z,11.51
2022-11-08T06:23:53.548Z,11.51
2022-11-08T06:26:22.658Z,11.49
2022-11-08T06:28:50.710Z,11.49
2022-11-08T06:31:18.749Z,11.48
2022-11-08T06:33:47.194Z,11.48
2022-11-08T06:36:15.224Z,11.45
2022-11-08T06:38:43.267Z,11.43
2022-11-08T06:41:17.524Z,11.43
2022-11-08T06:43:45.580Z,11.42
2022-11-08T06:46:13.625Z,11.41
2022-11-08T06:48:41.708Z,11.40
2022-11-08T06:51:09.716Z,11.41
2022-11-08T06:53:37.719Z,11.39
2022-11-08T06:56:06.271Z,11.39
2022-11-08T06:58:35.641Z,11.38
2022-11-08T07:01:04.638Z,11.39
2022-11-08T07:03:32.964Z,11.39
2022-11-08T07:06:02.833Z,11.39
2022-11-08T07:08:31.024Z,11.39
2022-11-08T07:10:59.162Z,11.39
2022-11-08T07:13:27.194Z,11.40
2022-11-08T07:15:59.847Z,11.40
2022-11-08T07:18:28.111Z,11.41
2022-11-08T07:20:59.979Z,11.41
2022-11-08T07:23:28.116Z,11.41
2022-11-08T07:25:56.225Z,11.41
2022-11-08T07:28:24.251Z,11.42
2022-11-08T07:30:52.308Z,11.42
2022-11-08T07:33:22.171Z,11.42
2022-11-08T07:35:50.364Z,11.43
2022-11-08T07:38:18.409Z,11.44
2022-11-08T07:40:46.393Z,11.45
2022-11-08T07:43:14.472Z,11.48
2022-11-08T07:45:42.721Z,11.48
2022-11-08T07:48:13.211Z,11.50
2022-11-08T07:50:43.571Z,11.53
2022-11-08T07:53:11.808Z,11.55
2022-11-08T07:55:40.598Z,11.57
2022-11-08T07:58:10.802Z,11.57
2022-11-08T08:00:40.498Z,11.60
2022-11-08T08:03:10.950Z,11.62
2022-11-08T08:05:40.829Z,11.64
2022-11-08T08:08:11.009Z,11.67
2022-11-08T08:10:39.472Z,11.69
2022-11-08T08:13:07.547Z,11.72
2022-11-08T08:15:35.871Z,11.74
2022-11-08T08:18:04.935Z,11.77
2022-11-08T08:20:33.577Z,11.80
2022-11-08T08:23:01.963Z,11.84
2022-11-08T08:25:31.988Z,11.86
2022-11-08T08:28:01.888Z,11.88
2022-11-08T08:30:31.165Z,11.90
2022-11-08T08:33:26.828Z,11.93
2022-11-08T08:35:53.343Z,11.96
2022-11-08T08:38:21.758Z,11.98
2022-11-08T08:40:51.285Z,12.01
2022-11-08T08:43:19.683Z,12.04
2022-11-08T08:45:48.827Z,12.07
2022-11-08T08:48:17.413Z,12.10
2022-11-08T08:50:45.669Z,12.12
2022-11-08T08:53:13.749Z,12.16
2022-11-08T08:55:42.489Z,12.18
2022-11-08T08:58:12.416Z,12.24
2022-11-08T09:03:28.791Z,12.39
2022-11-08T09:05:58.473Z,12.47
2022-11-08T09:08:26.543Z,12.56
2022-11-08T09:10:55.680Z,12.59
2022-11-08T09:13:27.173Z,12.61
2022-11-08T09:15:55.516Z,12.63
2022-11-08T09:18:23.594Z,12.68
2022-11-08T09:20:51.684Z,12.75
2022-11-08T09:23:20.108Z,12.83
2022-11-08T09:25:48.302Z,12.93
2022-11-08T09:28:16.314Z,13.08
2022-11-08T09:30:45.742Z,13.21
2022-11-08T09:33:13.851Z,13.36
2022-11-08T09:35:42.064Z,13.53
2022-11-08T09:38:10.122Z,13.70
2022-11-08T09:40:41.401Z,13.88
2022-11-08T09:43:30.211Z,14.00
2022-11-08T09:45:59.704Z,14.09
2022-11-08T09:48:31.058Z,14.14
2022-11-08T09:51:00.242Z,14.17
2022-11-08T09:53:35.803Z,14.18
2022-11-08T09:56:07.501Z,14.21
2022-11-08T09:58:37.915Z,14.28
2022-11-08T10:01:11.108Z,14.35
2022-11-08T10:03:39.558Z,14.36
2022-11-08T10:06:35.817Z,14.41
2022-11-08T10:09:12.053Z,14.46
2022-11-08T10:11:52.061Z,14.50
2022-11-08T10:14:31.258Z,14.53
2022-11-08T10:17:13.056Z,14.55
2022-11-08T10:20:03.828Z,14.59
2022-11-08T10:22:43.373Z,14.63
2022-11-08T10:25:20.459Z,14.67
2022-11-08T10:27:48.455Z,14.70
2022-11-08T10:30:20.772Z,14.76
2022-11-08T10:32:52.661Z,14.77
2022-11-08T10:35:26.432Z,14.78
2022-11-08T10:37:57.136Z,14.78
2022-11-08T10:40:35.744Z,14.77
2022-11-08T10:43:09.552Z,14.86
2022-11-08T10:45:37.884Z,15.03
2022-11-08T10:48:07.750Z,15.23
2022-11-08T10:50:43.364Z,15.41
2022-11-08T10:53:18.020Z,15.47
2022-11-08T10:55:51.163Z,15.46
2022-11-08T10:58:33.374Z,15.42
2022-11-08T11:01:03.564Z,15.34
2022-11-08T11:03:33.316Z,15.23
2022-11-08T11:06:02.820Z,15.16
2022-11-08T11:08:31.008Z,15.14
2022-11-08T11:11:23.152Z,15.15
2022-11-08T11:14:10.761Z,15.16
2022-11-08T11:16:53.069Z,15.16
2022-11-08T11:19:22.930Z,15.19
2022-11-08T11:21:55.849Z,15.24
2022-11-08T11:24:24.542Z,15.28
2022-11-08T11:27:02.118Z,15.35
2022-11-08T11:29:31.465Z,15.40
2022-11-08T11:31:59.922Z,15.44
2022-11-08T11:34:44.796Z,15.43
2022-11-08T11:37:19.628Z,15.40
2022-11-08T11:39:55.507Z,15.36
2022-11-08T11:42:45.106Z,15.32
2022-11-08T11:45:19.710Z,15.34
2022-11-08T11:47:53.077Z,15.42
2022-11-08T11:50:30.739Z,15.57
2022-11-08T11:52:59.762Z,15.64
2022-11-08T11:55:34.101Z,15.69
2022-11-08T11:58:10.412Z,15.73
2022-11-08T12:00:44.479Z,15.78
2022-11-08T12:03:37.592Z,15.86
2022-11-08T12:06:29.402Z,15.94
2022-11-08T12:09:09.340Z,15.95
2022-11-08T12:11:53.194Z,15.93
2022-11-08T12:14:36.747Z,15.88
2022-11-08T12:17:18.286Z,15.85
2022-11-08T12:19:52.197Z,15.84
2022-11-08T12:22:41.659Z,15.91
2022-11-08T12:25:16.262Z,16.00
2022-11-08T12:27:50.126Z,16.01
2022-11-08T12:30:20.592Z,15.98
2022-11-08T12:32:58.600Z,15.96
2022-11-08T12:35:37.012Z,15.92
2022-11-08T12:38:16.936Z,15.82
2022-11-08T12:40:50.351Z,15.74
2022-11-08T12:43:28.115Z,15.66
2022-11-08T12:46:06.778Z,15.60
2022-11-08T12:48:53.518Z,15.51
2022-11-08T12:51:26.713Z,15.43
2022-11-08T12:54:09.454Z,15.34
2022-11-08T12:56:40.567Z,15.29
2022-11-08T12:59:18.277Z,15.22
2022-11-08T13:01:46.792Z,15.16
2022-11-08T13:04:41.472Z,15.11
2022-11-08T13:07:25.693Z,15.07
2022-11-08T13:10:01.714Z,15.06
2022-11-08T13:12:44.797Z,15.07
2022-11-08T13:15:21.328Z,15.06
2022-11-08T13:18:25.662Z,15.07
2022-11-08T13:20:53.764Z,15.06
2022-11-08T13:23:30.452Z,15.04
2022-11-08T13:26:21.175Z,14.99
2022-11-08T13:28:50.018Z,14.96
2022-11-08T13:31:21.730Z,14.93
2022-11-08T13:34:02.480Z,14.90
2022-11-08T13:36:40.049Z,14.89
2022-11-08T13:39:34.295Z,14.89
2022-11-08T13:42:06.331Z,14.92
2022-11-08T13:44:58.841Z,14.97
2022-11-08T13:47:53.436Z,15.01
2022-11-08T13:50:53.112Z,15.00
2022-11-08T13:53:54.683Z,15.01
2022-11-08T13:56:50.749Z,14.99
2022-11-08T13:59:52.101Z,14.96
2022-11-08T14:02:38.077Z,14.92
2022-11-08T14:05:26.006Z,14.88
2022-11-08T14:08:19.627Z,14.84
2022-11-08T14:11:29.034Z,14.82
2022-11-08T14:14:16.913Z,14.79
2022-11-08T14:16:53.336Z,14.77
2022-11-08T14:19:24.465Z,14.73
2022-11-08T14:21:55.200Z,14.72
2022-11-08T14:24:25.844Z,14.68
2022-11-08T14:26:54.416Z,14.67
2022-11-08T14:29:24.724Z,14.65
2022-11-08T14:32:03.640Z,14.63
2022-11-08T14:34:35.227Z,14.63
2022-11-08T14:37:03.798Z,14.60
2022-11-08T14:39:33.670Z,14.59
2022-11-08T14:42:03.821Z,14.59
2022-11-08T14:44:32.062Z,14.59
2022-11-08T14:47:00.400Z,14.59
2022-11-08T14:49:34.126Z,14.59
2022-11-08T14:52:17.255Z,14.57
2022-11-08T14:54:47.444Z,14.56
2022-11-08T14:57:32.924Z,14.54
2022-11-08T15:00:03.291Z,14.54
2022-11-08T15:02:31.912Z,14.54
2022-11-08T15:05:01.392Z,14.51
2022-11-08T15:07:29.519Z,14.53
2022-11-08T15:09:57.644Z,14.51
2022-11-08T15:12:26.054Z,14.51
2022-11-08T15:14:58.080Z,14.51
2022-11-08T15:17:37.315Z,14.49
2022-11-08T15:20:20.773Z,14.48
2022-11-08T15:22:51.872Z,14.48
2022-11-08T15:25:29.013Z,14.43
2022-11-08T15:27:58.511Z,14.42
2022-11-08T15:30:36.318Z,14.38
2022-11-08T15:33:04.633Z,14.34
2022-11-08T15:35:36.671Z,14.31
2022-11-08T15:38:06.009Z,14.27
2022-11-08T15:40:36.899Z,14.22
2022-11-08T15:43:04.972Z,14.20
2022-11-08T15:45:35.644Z,14.16
2022-11-08T15:48:13.625Z,14.14
2022-11-08T15:50:43.003Z,14.12
2022-11-08T15:53:11.393Z,14.11
2022-11-08T15:55:42.514Z,14.10
2022-11-08T15:58:15.031Z,14.09
2022-11-08T16:00:46.581Z,14.06
2022-11-08T16:03:14.668Z,14.03
2022-11-08T16:05:45.979Z,14.00
2022-11-08T16:08:19.687Z,13.99
2022-11-08T16:10:49.692Z,13.97
2022-11-08T16:13:20.492Z,13.95
2022-11-08T16:15:48.556Z,13.93
2022-11-08T16:18:17.116Z,13.90
2022-11-08T16:20:46.728Z,13.87
2022-11-08T16:23:15.028Z,13.85
2022-11-08T16:25:45.247Z,13.82
2022-11-08T16:28:20.470Z,13.80
2022-11-08T16:30:49.121Z,13.79
2022-11-08T16:33:22.070Z,13.76
2022-11-08T16:35:52.285Z,13.75
2022-11-08T16:38:24.111Z,13.75
2022-11-08T16:40:52.192Z,13.75
2022-11-08T16:43:20.500Z,13.73
2022-11-08T16:46:04.930Z,13.72
2022-11-08T16:48:35.947Z,13.71
2022-11-08T16:51:07.358Z,13.71
2022-11-08T16:53:37.517Z,13.69
2022-11-08T16:56:07.455Z,13.68
2022-11-08T16:58:35.467Z,13.68
2022-11-08T17:01:09.167Z,13.69
2022-11-08T17:03:38.376Z,13.69
2022-11-08T17:06:08.145Z,13.69
2022-11-08T17:08:36.195Z,13.69
2022-11-08T17:11:04.265Z,13.70
2022-11-08T17:13:36.141Z,13.73
2022-11-08T17:16:07.669Z,13.73
2022-11-08T17:18:35.655Z,13.74
2022-11-08T17:21:30.368Z,13.74
2022-11-08T17:23:55.607Z,13.74
2022-11-08T17:26:23.640Z,13.76
2022-11-08T17:28:55.348Z,13.75
2022-11-08T17:31:27.891Z,13.77
2022-11-08T17:33:56.142Z,13.78
2022-11-08T17:36:25.552Z,13.80
2022-11-08T17:38:53.639Z,13.82
2022-11-08T17:41:21.756Z,13.86
2022-11-08T17:43:50.023Z,13.89
2022-11-08T17:46:18.109Z,13.92
2022-11-08T17:48:46.099Z,13.94
2022-11-08T17:51:15.599Z,13.99
2022-11-08T17:53:44.960Z,14.02
2022-11-08T17:56:13.266Z,14.05
2022-11-08T17:58:41.463Z,14.10
2022-11-08T18:01:10.055Z,14.14
2022-11-08T18:03:38.133Z,14.18
2022-11-08T18:06:09.733Z,14.23
2022-11-08T18:08:38.158Z,14.26
2022-11-08T18:11:07.882Z,14.31
2022-11-08T18:13:36.308Z,14.36
2022-11-08T18:16:09.096Z,14.40
2022-11-08T18:18:37.677Z,14.42
2022-11-08T18:21:05.885Z,14.45
2022-11-08T18:23:34.070Z,14.47
2022-11-08T18:26:02.172Z,14.46
2022-11-08T18:28:31.751Z,14.45
2022-11-08T18:31:05.877Z,14.44
2022-11-08T18:33:34.012Z,14.45
2022-11-08T18:36:04.662Z,14.45
2022-11-08T18:38:32.696Z,14.45
2022-11-08T18:41:00.782Z,14.41
2022-11-08T18:43:28.929Z,14.39
2022-11-08T18:45:58.339Z,14.35
2022-11-08T18:48:26.333Z,14.34
2022-11-08T18:50:54.378Z,14.32
2022-11-08T18:53:22.366Z,14.30
2022-11-08T18:55:50.572Z,14.30
2022-11-08T18:58:20.383Z,14.28
2022-11-08T19:00:48.888Z,14.26
2022-11-08T19:03:18.499Z,14.26
2022-11-08T19:05:47.569Z,14.25
2022-11-08T19:08:15.926Z,14.24
2022-11-08T19:10:50.438Z,14.23
2022-11-08T19:13:18.881Z,14.20
2022-11-08T19:15:55.955Z,14.18
2022-11-08T19:18:25.824Z,14.16
2022-11-08T19:20:57.600Z,14.15
2022-11-08T19:23:26.270Z,14.14
2022-11-08T19:25:56.164Z,14.12
2022-11-08T19:28:29.059Z,14.13
2022-11-08T19:31:00.160Z,14.11
2022-11-08T19:33:31.957Z,14.11
2022-11-08T19:36:05.281Z,14.12
2022-11-08T19:38:34.288Z,14.13
2022-11-08T19:41:03.538Z,14.14
2022-11-08T19:43:31.650Z,14.15
2022-11-08T19:46:03.343Z,14.16
2022-11-08T19:48:35.542Z,14.18
2022-11-08T19:51:03.883Z,14.19
2022-11-08T19:53:32.078Z,14.20
2022-11-08T19:56:01.348Z,14.22
2022-11-08T19:58:29.612Z,14.22
2022-11-08T20:00:57.619Z,14.22
2022-11-08T20:03:25.717Z,14.23
2022-11-08T20:05:55.473Z,14.23
2022-11-08T20:08:23.522Z,14.23
2022-11-08T20:10:51.721Z,14.23
2022-11-08T20:13:19.798Z,14.21
2022-11-08T20:15:48.049Z,14.21
2022-11-08T20:18:16.508Z,14.21
2022-11-08T20:20:45.388Z,14.21
2022-11-08T20:23:16.683Z,14.21
2022-11-08T20:25:44.762Z,14.20
2022-11-08T20:28:12.804Z,14.18
2022-11-08T20:30:41.513Z,14.17
2022-11-08T20:33:09.541Z,14.16
2022-11-08T20:35:40.456Z,14.14
2022-11-08T20:38:08.432Z,14.13
2022-11-08T20:40:40.082Z,14.13
2022-11-08T20:43:08.327Z,14.12
2022-11-08T20:45:40.174Z,14.10
2022-11-08T20:48:08.206Z,14.09
2022-11-08T20:50:36.278Z,14.08
2022-11-08T20:53:04.343Z,14.06
2022-11-08T20:55:32.353Z,14.04
2022-11-08T20:58:01.829Z,14.04
2022-11-08T21:00:57.670Z,14.04
2022-11-08T21:03:19.188Z,14.03
2022-11-08T21:05:51.765Z,14.03
2022-11-08T21:11:08.782Z,14.01
2022-11-08T21:13:39.980Z,14.00
2022-11-08T21:16:28.561Z,13.97
2022-11-08T21:18:57.088Z,13.96
2022-11-08T21:21:25.111Z,13.95
2022-11-08T21:23:54.352Z,13.94
2022-11-08T21:26:23.074Z,13.94
2022-11-08T21:28:52.665Z,13.94
2022-11-08T21:31:20.802Z,13.93
2022-11-08T21:33:48.838Z,13.91
2022-11-08T21:36:17.752Z,13.89
2022-11-08T21:38:45.967Z,13.89
2022-11-08T21:41:14.001Z,13.89
2022-11-08T21:43:43.674Z,13.88
2022-11-08T21:46:18.124Z,13.86
2022-11-08T21:48:46.870Z,13.88
2022-11-08T21:51:16.148Z,13.88
2022-11-08T21:53:53.730Z,13.88
2022-11-08T21:56:22.973Z,13.88
2022-11-08T21:58:51.007Z,13.89
2022-11-08T22:01:25.423Z,13.88
2022-11-08T22:03:56.785Z,13.88
2022-11-08T22:06:24.854Z,13.88
2022-11-08T22:08:52.901Z,13.87
2022-11-08T22:11:20.943Z,13.85
2022-11-08T22:13:48.984Z,13.84
2022-11-08T22:16:16.990Z,13.83
2022-11-08T22:21:41.059Z,13.81
2022-11-08T22:24:11.216Z,13.80
2022-11-08T22:26:39.443Z,13.77
2022-11-08T22:29:08.670Z,13.75
2022-11-08T22:31:37.182Z,13.71
2022-11-08T22:34:08.283Z,13.70
2022-11-08T22:36:41.302Z,13.68
2022-11-08T22:39:13.426Z,13.67
2022-11-08T22:41:41.572Z,13.67
2022-11-08T22:44:12.216Z,13.63
2022-11-08T22:46:41.384Z,13.62
2022-11-08T22:49:11.149Z,13.60
2022-11-08T22:51:39.715Z,13.57
2022-11-08T22:54:08.297Z,13.54
2022-11-08T22:56:36.931Z,13.52
2022-11-08T22:59:05.130Z,13.49
2022-11-08T23:01:33.491Z,13.47
2022-11-08T23:04:01.533Z,13.45
2022-11-08T23:06:30.981Z,13.44
2022-11-08T23:08:59.320Z,13.43
2022-11-08T23:11:44.852Z,13.42
2022-11-08T23:14:36.487Z,13.39
2022-11-08T23:17:06.666Z,13.37
2022-11-08T23:19:52.332Z,13.35
2022-11-08T23:22:40.226Z,13.35
2022-11-08T23:25:08.610Z,13.32
2022-11-08T23:27:53.986Z,13.31
2022-11-08T23:30:39.660Z,13.30
2022-11-08T23:33:07.814Z,13.29
2022-11-08T23:35:35.846Z,13.28
2022-11-08T23:38:05.196Z,13.27
2022-11-08T23:40:50.476Z,13.24
2022-11-08T23:43:37.555Z,13.23
2022-11-08T23:46:07.110Z,13.23
2022-11-08T23:48:35.158Z,13.21
2022-11-08T23:51:03.155Z,13.21
2022-11-08T23:53:34.536Z,13.22
2022-11-08T23:56:02.567Z,13.21
2022-11-08T23:58:30.607Z,13.18
